createdAt,value
2018-05-31T00:01:37.492Z,20.50
2018-05-31T00:04:05.089Z,20.50
2018-05-31T00:06:32.662Z,20.40
2018-05-31T00:09:00.211Z,20.40
2018-05-31T00:11:27.809Z,20.40
2018-05-31T00:13:56.152Z,20.30
2018-05-31T00:16:23.884Z,20.30
2018-05-31T00:18:51.454Z,20.30
2018-05-31T00:21:19.168Z,20.30
2018-05-31T00:23:46.928Z,20.30
2018-05-31T00:26:14.512Z,20.20
2018-05-31T00:28:42.858Z,20.20
2018-05-31T00:31:11.224Z,20.10
2018-05-31T00:33:38.755Z,20.10
2018-05-31T00:36:06.441Z,20.10
2018-05-31T00:38:33.987Z,20.00
2018-05-31T00:41:01.563Z,20.00
2018-05-31T00:43:29.112Z,20.00
2018-05-31T00:45:56.680Z,20.00
2018-05-31T00:48:24.224Z,20.00
2018-05-31T00:50:52.892Z,20.00
2018-05-31T00:53:20.438Z,19.90
2018-05-31T00:55:59.998Z,20.00
2018-05-31T00:58:28.304Z,19.90
2018-05-31T01:00:55.883Z,19.90
2018-05-31T01:03:23.461Z,19.90
2018-05-31T01:05:51.053Z,19.90
2018-05-31T01:08:18.627Z,19.90
2018-05-31T01:10:46.959Z,19.90
2018-05-31T01:13:14.633Z,19.90
2018-05-31T01:15:42.175Z,19.90
2018-05-31T01:18:09.720Z,19.80
2018-05-31T01:20:38.175Z,19.80
2018-05-31T01:23:05.815Z,19.80
2018-05-31T01:25:33.396Z,19.80
2018-05-31T01:28:01.732Z,19.80
2018-05-31T01:30:29.292Z,19.80
2018-05-31T01:32:58.012Z,19.80
2018-05-31T01:35:25.557Z,19.80
2018-05-31T01:37:53.116Z,19.80
2018-05-31T01:40:20.643Z,19.80
2018-05-31T01:42:48.199Z,19.80
2018-05-31T01:45:15.746Z,19.80
2018-05-31T01:47:43.306Z,19.80
2018-05-31T01:50:10.842Z,19.70
2018-05-31T01:52:39.620Z,19.70
2018-05-31T01:55:07.162Z,19.70
2018-05-31T01:57:34.713Z,19.70
2018-05-31T02:00:03.115Z,19.70
2018-05-31T02:02:30.723Z,19.70
2018-05-31T02:04:58.260Z,19.70
2018-05-31T02:07:26.582Z,19.70
2018-05-31T02:09:54.130Z,19.70
2018-05-31T02:12:21.682Z,19.70
2018-05-31T02:14:49.232Z,19.70
2018-05-31T02:17:16.795Z,19.70
2018-05-31T02:19:44.606Z,19.70
2018-05-31T02:22:12.303Z,19.60
2018-05-31T02:24:39.868Z,19.70
2018-05-31T02:27:08.171Z,19.70
2018-05-31T02:29:35.833Z,19.60
2018-05-31T02:32:03.367Z,19.60
2018-05-31T02:34:30.964Z,19.60
2018-05-31T02:36:59.295Z,19.60
2018-05-31T02:39:26.863Z,19.50
2018-05-31T02:41:55.171Z,19.50
2018-05-31T02:44:22.730Z,19.50
2018-05-31T02:46:50.301Z,19.60
2018-05-31T02:49:17.866Z,19.60
2018-05-31T02:51:45.419Z,19.60
2018-05-31T02:54:13.772Z,19.60
2018-05-31T02:56:41.404Z,19.60
2018-05-31T02:59:08.970Z,19.60
2018-05-31T03:01:36.508Z,19.60
2018-05-31T03:04:04.089Z,19.70
2018-05-31T03:06:31.785Z,19.60
2018-05-31T03:08:59.349Z,19.70
2018-05-31T03:11:26.918Z,19.60
2018-05-31T03:13:55.264Z,19.60
2018-05-31T03:16:23.579Z,19.60
2018-05-31T03:18:51.153Z,19.60
2018-05-31T03:21:19.459Z,19.60
2018-05-31T03:23:47.027Z,19.60
2018-05-31T03:26:15.617Z,19.60
2018-05-31T03:28:43.184Z,19.60
2018-05-31T03:31:10.741Z,19.60
2018-05-31T03:33:39.170Z,19.70
2018-05-31T03:36:06.737Z,19.70
2018-05-31T03:38:35.123Z,19.70
2018-05-31T03:41:02.696Z,19.80
2018-05-31T03:43:30.376Z,19.90
2018-05-31T03:45:57.991Z,19.90
2018-05-31T03:48:25.566Z,20.00
2018-05-31T03:50:53.171Z,20.10
2018-05-31T03:53:20.727Z,20.20
2018-05-31T03:55:48.274Z,20.20
2018-05-31T03:58:15.824Z,20.20
2018-05-31T04:00:43.395Z,20.30
2018-05-31T04:03:11.168Z,20.30
2018-05-31T04:05:38.848Z,20.40
2018-05-31T04:08:06.392Z,20.40
2018-05-31T04:10:33.951Z,20.40
2018-05-31T04:13:03.879Z,20.50
2018-05-31T04:15:31.451Z,20.50
2018-05-31T04:17:58.996Z,20.60
2018-05-31T04:20:26.563Z,20.60
2018-05-31T04:22:54.157Z,20.60
2018-05-31T04:25:22.116Z,20.70
2018-05-31T04:27:49.655Z,20.70
2018-05-31T04:30:17.210Z,20.80
2018-05-31T04:32:46.250Z,20.90
2018-05-31T04:35:13.822Z,20.90
2018-05-31T04:37:42.179Z,21.10
2018-05-31T04:40:09.738Z,21.10
2018-05-31T04:42:37.273Z,21.20
2018-05-31T04:45:04.826Z,21.30
2018-05-31T04:47:32.370Z,21.40
2018-05-31T04:49:59.943Z,21.50
2018-05-31T04:52:28.272Z,21.60
2018-05-31T04:54:55.843Z,21.50
2018-05-31T04:57:23.589Z,21.60
2018-05-31T04:59:51.219Z,21.60
2018-05-31T05:02:18.772Z,21.70
2018-05-31T05:04:46.316Z,21.70
2018-05-31T05:07:13.875Z,21.80
2018-05-31T05:09:42.499Z,21.80
2018-05-31T05:12:10.072Z,21.80
2018-05-31T05:14:37.635Z,21.90
2018-05-31T05:17:06.028Z,22.10
2018-05-31T05:19:33.633Z,22.00
2018-05-31T05:22:01.255Z,22.10
2018-05-31T05:24:28.848Z,22.30
2018-05-31T05:26:57.184Z,22.50
2018-05-31T05:29:24.732Z,22.40
2018-05-31T05:31:52.294Z,22.50
2018-05-31T05:34:19.828Z,22.50
2018-05-31T05:36:47.606Z,22.60
2018-05-31T05:39:15.171Z,22.70
2018-05-31T05:41:42.729Z,22.80
2018-05-31T05:44:10.262Z,23.00
2018-05-31T05:46:37.935Z,23.00
2018-05-31T05:49:05.484Z,23.00
2018-05-31T05:51:33.038Z,23.10
2018-05-31T05:54:00.594Z,23.10
2018-05-31T05:56:29.006Z,23.30
2018-05-31T05:58:56.504Z,23.20
2018-05-31T06:01:24.079Z,23.40
2018-05-31T06:03:51.615Z,23.40
2018-05-31T06:06:19.949Z,23.70
2018-05-31T06:08:48.259Z,23.80
2018-05-31T06:11:15.895Z,23.70
2018-05-31T06:13:43.426Z,23.80
2018-05-31T06:16:11.812Z,24.00
2018-05-31T06:18:39.456Z,24.00
2018-05-31T06:21:07.041Z,24.10
2018-05-31T06:23:35.415Z,24.40
2018-05-31T06:26:03.010Z,24.40
2018-05-31T06:28:30.546Z,24.50
2018-05-31T06:30:59.866Z,24.60
2018-05-31T06:33:27.579Z,24.60
2018-05-31T06:35:55.076Z,24.70
2018-05-31T06:38:22.628Z,24.70
2018-05-31T06:40:50.142Z,24.80
2018-05-31T06:43:17.708Z,24.90
2018-05-31T06:45:45.232Z,25.00
2018-05-31T06:48:12.811Z,25.10
2018-05-31T06:50:40.334Z,25.20
2018-05-31T06:53:07.882Z,25.30
2018-05-31T06:55:35.421Z,25.40
2018-05-31T06:58:02.966Z,25.40
2018-05-31T07:00:30.482Z,25.50
2018-05-31T07:02:58.911Z,25.80
2018-05-31T07:05:27.328Z,25.90
2018-05-31T07:07:54.907Z,25.80
2018-05-31T07:10:22.431Z,25.90
2018-05-31T07:12:50.250Z,26.00
2018-05-31T07:15:19.000Z,26.00
2018-05-31T07:17:47.374Z,26.30
2018-05-31T07:20:15.910Z,26.30
2018-05-31T07:22:44.403Z,26.40
2018-05-31T07:25:11.964Z,26.50
2018-05-31T07:27:39.547Z,26.60
2018-05-31T07:30:07.108Z,26.60
2018-05-31T07:32:34.681Z,26.70
2018-05-31T07:35:08.705Z,26.80
2018-05-31T07:37:36.306Z,26.90
2018-05-31T07:40:04.035Z,26.90
2018-05-31T07:42:31.606Z,27.00
2018-05-31T07:44:59.118Z,27.10
2018-05-31T07:47:26.677Z,27.10
2018-05-31T07:49:54.213Z,27.20
2018-05-31T07:52:21.782Z,27.10
2018-05-31T07:54:49.611Z,27.10
2018-05-31T07:57:17.150Z,27.20
2018-05-31T07:59:45.596Z,27.20
2018-05-31T08:02:13.149Z,27.30
2018-05-31T08:04:44.345Z,27.30
2018-05-31T08:07:11.897Z,27.40
2018-05-31T08:09:39.860Z,27.40
2018-05-31T08:12:07.387Z,27.40
2018-05-31T08:14:34.947Z,27.60
2018-05-31T08:17:02.538Z,27.60
2018-05-31T08:19:30.088Z,27.80
2018-05-31T08:21:58.462Z,28.00
2018-05-31T08:24:26.881Z,28.00
2018-05-31T08:26:55.237Z,28.00
2018-05-31T08:29:22.806Z,28.00
2018-05-31T08:31:50.327Z,28.10
2018-05-31T08:34:18.440Z,28.10
2018-05-31T08:36:49.386Z,28.10
2018-05-31T08:39:17.924Z,28.20
2018-05-31T08:41:45.475Z,28.40
2018-05-31T08:44:14.798Z,28.60
2018-05-31T08:46:42.331Z,28.60
2018-05-31T08:49:09.886Z,28.70
2018-05-31T08:51:37.415Z,28.50
2018-05-31T08:54:05.115Z,28.60
2018-05-31T08:56:33.773Z,28.50
2018-05-31T08:59:02.213Z,28.50
2018-05-31T09:01:29.775Z,28.50
2018-05-31T09:03:57.704Z,28.60
2018-05-31T09:06:25.223Z,28.70
2018-05-31T09:08:53.535Z,28.90
2018-05-31T09:11:21.128Z,28.90
2018-05-31T09:13:49.473Z,29.10
2018-05-31T09:16:17.043Z,29.00
2018-05-31T09:18:45.469Z,29.00
2018-05-31T09:21:13.091Z,29.00
2018-05-31T09:23:40.683Z,29.00
2018-05-31T09:26:08.203Z,29.10
2018-05-31T09:28:35.812Z,29.10
2018-05-31T09:31:03.323Z,29.20
2018-05-31T09:33:31.644Z,29.10
2018-05-31T09:35:59.203Z,29.10
2018-05-31T09:38:26.749Z,29.30
2018-05-31T09:40:54.274Z,29.40
2018-05-31T09:43:22.289Z,29.30
2018-05-31T09:45:49.851Z,29.30
2018-05-31T09:48:17.370Z,29.30
2018-05-31T09:50:45.700Z,29.30
2018-05-31T09:53:13.240Z,29.30
2018-05-31T09:55:40.873Z,29.40
2018-05-31T09:58:08.527Z,29.40
2018-05-31T10:00:37.892Z,29.40
2018-05-31T10:03:05.715Z,29.40
2018-05-31T10:05:34.080Z,29.60
2018-05-31T10:08:02.391Z,29.70
2018-05-31T10:10:29.949Z,29.70
2018-05-31T10:12:59.163Z,30.00
2018-05-31T10:15:26.900Z,29.90
2018-05-31T10:17:55.316Z,30.20
2018-05-31T10:20:22.915Z,30.10
2018-05-31T10:22:52.168Z,30.10
2018-05-31T10:25:19.719Z,30.10
2018-05-31T10:27:47.275Z,30.20
2018-05-31T10:30:14.945Z,30.30
2018-05-31T10:32:42.455Z,30.40
2018-05-31T10:35:09.996Z,30.40
2018-05-31T10:37:37.550Z,30.50
2018-05-31T10:40:05.140Z,30.50
2018-05-31T10:42:32.663Z,30.70
2018-05-31T10:45:00.985Z,30.80
2018-05-31T10:47:28.587Z,30.80
2018-05-31T10:49:56.154Z,30.80
2018-05-31T10:52:23.701Z,30.80
2018-05-31T10:54:51.424Z,30.90
2018-05-31T10:57:18.980Z,31.00
2018-05-31T10:59:46.546Z,31.10
2018-05-31T11:02:14.161Z,31.10
2018-05-31T11:04:41.876Z,31.20
2018-05-31T11:07:11.330Z,31.20
2018-05-31T11:09:38.947Z,31.20
2018-05-31T11:12:06.683Z,31.10
2018-05-31T11:14:36.194Z,31.00
2018-05-31T11:17:03.741Z,31.10
2018-05-31T11:19:31.297Z,30.90
2018-05-31T11:21:58.924Z,30.90
2018-05-31T11:24:26.478Z,30.90
2018-05-31T11:26:54.060Z,30.90
2018-05-31T11:29:21.592Z,31.00
2018-05-31T11:31:49.157Z,31.00
2018-05-31T11:34:17.116Z,31.00
2018-05-31T11:36:44.978Z,31.00
2018-05-31T11:39:13.311Z,31.20
2018-05-31T11:41:40.911Z,31.10
2018-05-31T11:44:08.589Z,31.30
2018-05-31T11:46:36.321Z,31.50
2018-05-31T11:49:03.845Z,31.50
2018-05-31T11:51:33.060Z,31.90
2018-05-31T11:54:00.579Z,31.90
2018-05-31T11:56:28.173Z,32.00
2018-05-31T11:58:56.639Z,31.90
2018-05-31T12:01:24.203Z,31.80
2018-05-31T12:03:51.728Z,31.70
2018-05-31T12:06:19.272Z,31.60
2018-05-31T12:08:46.958Z,31.50
2018-05-31T12:11:15.298Z,31.30
2018-05-31T12:13:42.930Z,31.30
2018-05-31T12:16:10.479Z,31.60
2018-05-31T12:18:38.014Z,31.80
2018-05-31T12:21:05.570Z,31.80
2018-05-31T12:23:33.117Z,31.90
2018-05-31T12:26:00.679Z,32.10
2018-05-31T12:28:28.219Z,32.20
2018-05-31T12:30:55.761Z,32.10
2018-05-31T12:33:24.067Z,32.00
2018-05-31T12:35:53.163Z,32.10
2018-05-31T12:38:20.694Z,32.10
2018-05-31T12:40:48.243Z,32.30
2018-05-31T12:43:15.807Z,32.40
2018-05-31T12:45:44.351Z,32.50
2018-05-31T12:48:11.906Z,32.60
2018-05-31T12:50:39.450Z,32.70
2018-05-31T12:53:08.663Z,32.50
2018-05-31T12:55:36.200Z,32.40
2018-05-31T12:58:03.773Z,32.50
2018-05-31T13:00:31.312Z,32.50
2018-05-31T13:02:58.925Z,32.60
2018-05-31T13:05:26.560Z,32.60
2018-05-31T13:07:55.300Z,32.60
2018-05-31T13:10:23.614Z,32.70
2018-05-31T13:12:51.877Z,32.60
2018-05-31T13:15:19.419Z,32.70
2018-05-31T13:17:46.992Z,32.70
2018-05-31T13:20:14.564Z,32.70
2018-05-31T13:22:42.121Z,32.60
2018-05-31T13:25:09.733Z,32.60
2018-05-31T13:27:37.289Z,32.70
2018-05-31T13:30:06.144Z,32.70
2018-05-31T13:32:33.707Z,32.70
2018-05-31T13:35:01.616Z,32.70
2018-05-31T13:37:30.243Z,32.70
2018-05-31T13:39:57.776Z,32.70
2018-05-31T13:42:26.683Z,32.60
2018-05-31T13:44:55.334Z,32.60
2018-05-31T13:47:22.950Z,32.60
2018-05-31T13:49:50.511Z,32.50
2018-05-31T13:52:19.304Z,32.40
2018-05-31T13:54:46.870Z,32.40
2018-05-31T13:57:15.198Z,32.50
2018-05-31T13:59:42.776Z,32.40
2018-05-31T14:02:10.327Z,32.20
2018-05-31T14:04:38.136Z,32.10
2018-05-31T14:07:05.849Z,32.30
2018-05-31T14:09:33.451Z,32.50
2018-05-31T14:12:01.012Z,32.60
2018-05-31T14:14:28.549Z,32.70
2018-05-31T14:16:56.123Z,32.90
2018-05-31T14:19:23.686Z,33.20
2018-05-31T14:21:52.252Z,33.70
2018-05-31T14:24:19.904Z,33.70
2018-05-31T14:26:47.451Z,33.90
2018-05-31T14:29:18.034Z,33.90
2018-05-31T14:31:45.611Z,33.90
2018-05-31T14:34:13.161Z,34.20
2018-05-31T14:36:41.469Z,34.00
2018-05-31T14:39:09.025Z,34.00
2018-05-31T14:41:36.612Z,34.10
2018-05-31T14:44:04.934Z,34.10
2018-05-31T14:46:32.496Z,34.10
2018-05-31T14:49:00.969Z,34.20
2018-05-31T14:51:29.287Z,34.10
2018-05-31T14:53:56.840Z,34.10
2018-05-31T14:56:24.354Z,34.10
2018-05-31T14:58:51.960Z,33.80
2018-05-31T15:01:19.559Z,33.50
2018-05-31T15:03:47.246Z,33.30
2018-05-31T15:06:15.200Z,33.20
2018-05-31T15:08:42.839Z,33.00
2018-05-31T15:11:10.667Z,32.90
2018-05-31T15:13:38.224Z,32.90
2018-05-31T15:16:05.775Z,32.90
2018-05-31T15:18:33.432Z,33.00
2018-05-31T15:21:01.780Z,34.00
2018-05-31T15:23:29.475Z,33.90
2018-05-31T15:25:57.203Z,34.40
2018-05-31T15:28:24.857Z,34.60
2018-05-31T15:30:54.339Z,34.60
2018-05-31T15:33:22.266Z,34.60
2018-05-31T15:35:49.897Z,34.50
2018-05-31T15:38:17.491Z,34.40
2018-05-31T15:40:45.108Z,34.30
2018-05-31T15:43:12.666Z,34.10
2018-05-31T15:45:40.279Z,34.70
2018-05-31T15:48:09.995Z,34.80
2018-05-31T15:50:38.953Z,34.90
2018-05-31T15:53:06.577Z,34.80
2018-05-31T15:55:40.140Z,34.70
2018-05-31T15:58:07.840Z,34.50
2018-05-31T16:00:35.485Z,34.30
2018-05-31T16:03:03.078Z,33.90
2018-05-31T16:05:31.401Z,33.50
2018-05-31T16:08:00.407Z,33.50
2018-05-31T16:10:28.884Z,33.00
2018-05-31T16:12:56.483Z,33.00
2018-05-31T16:15:24.133Z,32.90
2018-05-31T16:17:52.713Z,32.60
2018-05-31T16:20:20.664Z,32.60
2018-05-31T16:22:48.712Z,32.60
2018-05-31T16:25:16.579Z,32.70
2018-05-31T16:27:44.825Z,32.90
2018-05-31T16:30:12.465Z,32.90
2018-05-31T16:32:40.917Z,32.90
2018-05-31T16:35:08.594Z,32.90
2018-05-31T16:37:37.171Z,33.10
2018-05-31T16:40:04.779Z,33.10
2018-05-31T16:42:32.377Z,33.70
2018-05-31T16:44:59.997Z,34.20
2018-05-31T16:47:27.659Z,35.40
2018-05-31T16:49:55.447Z,37.00
2018-05-31T16:52:23.827Z,39.70
2018-05-31T16:54:51.460Z,39.60
2018-05-31T16:57:19.138Z,40.40
2018-05-31T16:59:47.650Z,40.70
2018-05-31T17:02:16.941Z,41.20
2018-05-31T17:04:45.504Z,41.80
2018-05-31T17:07:13.186Z,41.80
2018-05-31T17:09:41.442Z,42.50
2018-05-31T17:12:09.172Z,43.00
2018-05-31T17:14:37.648Z,43.50
2018-05-31T17:17:05.194Z,43.50
2018-05-31T17:19:33.146Z,43.90
2018-05-31T17:22:00.694Z,43.80
2018-05-31T17:24:28.316Z,43.20
2018-05-31T17:26:55.843Z,42.70
2018-05-31T17:29:23.400Z,42.00
2018-05-31T17:31:50.982Z,41.50
2018-05-31T17:34:18.616Z,41.20
2018-05-31T17:36:46.520Z,41.10
2018-05-31T17:39:14.483Z,41.40
2018-05-31T17:41:42.935Z,40.20
2018-05-31T17:44:10.552Z,40.10
2018-05-31T17:46:39.233Z,39.20
2018-05-31T17:49:06.835Z,38.00
2018-05-31T17:51:34.408Z,37.20
2018-05-31T17:54:02.784Z,35.70
2018-05-31T17:56:30.494Z,35.70
2018-05-31T17:58:58.859Z,35.00
2018-05-31T18:14:20.502Z,37.10
2018-05-31T18:16:48.011Z,37.00
2018-05-31T18:19:15.574Z,37.10
2018-05-31T18:21:43.898Z,36.70
2018-05-31T18:24:11.457Z,36.60
2018-05-31T18:26:39.060Z,36.10
2018-05-31T18:29:06.710Z,35.60
2018-05-31T18:31:35.201Z,35.20
2018-05-31T18:34:02.798Z,34.70
2018-05-31T18:36:30.408Z,34.10
2018-05-31T18:38:57.955Z,33.50
2018-05-31T18:41:25.562Z,33.00
2018-05-31T18:43:54.519Z,32.10
2018-05-31T18:46:22.404Z,32.00
2018-05-31T18:48:49.935Z,31.60
2018-05-31T18:51:19.471Z,31.30
2018-05-31T18:53:47.068Z,31.00
2018-05-31T18:56:14.619Z,30.70
2018-05-31T18:58:42.577Z,30.40
2018-05-31T19:01:10.140Z,30.10
2018-05-31T19:03:37.730Z,29.90
2018-05-31T19:06:06.086Z,29.50
2018-05-31T19:08:33.677Z,29.50
2018-05-31T19:11:02.165Z,29.40
2018-05-31T19:13:35.478Z,29.20
2018-05-31T19:16:03.396Z,29.00
2018-05-31T19:18:36.802Z,28.90
2018-05-31T19:21:05.157Z,28.60
2018-05-31T19:23:33.502Z,28.40
2018-05-31T19:26:01.072Z,28.50
2018-05-31T19:28:28.589Z,28.40
2018-05-31T19:31:01.904Z,28.30
2018-05-31T19:33:30.313Z,28.10
2018-05-31T19:36:03.707Z,28.10
2018-05-31T19:38:31.259Z,28.00
2018-05-31T19:40:58.789Z,28.00
2018-05-31T19:43:32.168Z,27.80
2018-05-31T19:45:59.711Z,27.70
2018-05-31T19:48:27.344Z,27.80
2018-05-31T19:50:54.879Z,27.70
2018-05-31T19:53:28.198Z,27.60
2018-05-31T19:55:55.722Z,27.60
2018-05-31T19:58:29.252Z,27.50
2018-05-31T20:01:03.161Z,27.50
2018-05-31T20:03:34.083Z,27.50
2018-05-31T20:06:01.897Z,27.50
2018-05-31T20:08:29.574Z,27.40
2018-05-31T20:10:57.866Z,27.30
2018-05-31T20:13:25.486Z,27.30
2018-05-31T20:15:54.014Z,27.20
2018-05-31T20:18:21.601Z,27.20
2018-05-31T20:20:50.066Z,27.10
2018-05-31T20:23:17.694Z,27.10
2018-05-31T20:25:45.389Z,27.10
2018-05-31T20:28:12.952Z,27.00
2018-05-31T20:30:40.509Z,27.00
2018-05-31T20:33:08.106Z,27.10
2018-05-31T20:35:35.647Z,27.10
2018-05-31T20:38:05.043Z,27.10
2018-05-31T20:40:33.120Z,27.00
2018-05-31T20:43:00.705Z,27.00
2018-05-31T20:45:28.255Z,27.00
2018-05-31T20:47:55.836Z,27.00
2018-05-31T20:50:23.668Z,26.90
2018-05-31T20:52:52.071Z,26.90
2018-05-31T20:55:21.655Z,26.80
2018-05-31T20:57:49.249Z,26.70
2018-05-31T21:00:16.828Z,26.70
2018-05-31T21:02:44.447Z,26.60
2018-05-31T21:05:13.678Z,26.60
2018-05-31T21:07:41.579Z,26.50
2018-05-31T21:10:09.150Z,26.50
2018-05-31T21:12:38.527Z,26.50
2018-05-31T21:15:06.441Z,26.50
2018-05-31T21:17:34.026Z,26.50
2018-05-31T21:20:02.709Z,26.50
2018-05-31T21:22:30.361Z,26.50
2018-05-31T21:24:57.977Z,26.50
2018-05-31T21:27:26.289Z,26.50
2018-05-31T21:29:53.845Z,26.50
2018-05-31T21:32:21.460Z,26.50
2018-05-31T21:34:49.255Z,26.40
2018-05-31T21:37:16.819Z,26.40
2018-05-31T21:39:44.385Z,26.30
2018-05-31T21:42:13.106Z,26.20
2018-05-31T21:44:40.716Z,26.10
2018-05-31T21:47:08.374Z,26.10
2018-05-31T21:49:36.715Z,26.00
2018-05-31T21:52:05.970Z,26.00
2018-05-31T21:54:34.347Z,25.90
2018-05-31T21:57:02.695Z,25.80
2018-05-31T21:59:30.278Z,25.80
2018-05-31T22:01:58.703Z,25.60
2018-05-31T22:04:26.312Z,25.50
2018-05-31T22:06:53.922Z,25.40
2018-05-31T22:09:22.324Z,25.20
2018-05-31T22:11:50.008Z,25.20
2018-05-31T22:14:17.635Z,25.10
2018-05-31T22:16:45.267Z,25.00
2018-05-31T22:19:12.925Z,25.00
2018-05-31T22:21:40.532Z,25.00
2018-05-31T22:24:08.075Z,24.90
2018-05-31T22:26:35.684Z,24.90
2018-05-31T22:29:03.227Z,24.80
2018-05-31T22:31:30.785Z,24.70
2018-05-31T22:33:58.371Z,24.70
2018-05-31T22:36:25.983Z,24.70
2018-05-31T22:38:53.502Z,24.60
2018-05-31T22:41:21.064Z,24.60
2018-05-31T22:43:48.663Z,24.60
2018-05-31T22:46:16.241Z,24.50
2018-05-31T22:48:43.763Z,24.50
2018-05-31T22:51:11.340Z,24.50
2018-05-31T22:53:38.883Z,24.50
2018-05-31T22:56:12.200Z,24.40
2018-05-31T22:58:40.530Z,24.40
2018-05-31T23:01:08.127Z,24.30
2018-05-31T23:03:35.646Z,24.20
2018-05-31T23:06:03.191Z,24.10
2018-05-31T23:08:36.408Z,24.10
2018-05-31T23:11:03.954Z,24.10
2018-05-31T23:13:31.484Z,24.10
2018-05-31T23:15:59.394Z,24.00
2018-05-31T23:18:27.703Z,24.00
2018-05-31T23:20:55.252Z,23.90
2018-05-31T23:23:22.810Z,24.00
2018-05-31T23:25:50.378Z,23.90
2018-05-31T23:28:18.089Z,23.90
2018-05-31T23:30:46.761Z,23.80
2018-05-31T23:33:14.356Z,23.80
2018-05-31T23:35:42.672Z,23.70
2018-05-31T23:38:10.219Z,23.60
2018-05-31T23:40:37.748Z,23.60
2018-05-31T23:43:05.335Z,23.60
2018-05-31T23:45:32.974Z,23.50
2018-05-31T23:48:00.904Z,23.40
2018-05-31T23:50:28.476Z,23.40
2018-05-31T23:52:56.241Z,23.40
2018-05-31T23:55:24.540Z,23.50
2018-05-31T23:57:54.541Z,23.40
